KDRO/DRO METAR and TAF weather

Enter ICAO airport designator
Station Type Date Time Source
KDRO METAR 2019/06/16 06:53 UTC NOAA

KDRO 160653Z AUTO 09006KT 10SM CLR 08/06 A3013 RMK AO2 SLP130 T00830056 402670050


Station Type Date Time Source
KDRO Decoded METAR 2019/06/16 06:53 UTC NOAA

DURANGO-LA PLATA COUNTY AIRPORT , CO, United States (KDRO) 37-09N 107-46W 2035M
Jun 16, 2019 - 02:53 AM EDT / 2019.06.16 0653 UTC
Wind: from the E (090 degrees) at 7 MPH (6 KT):0
Visibility: 10 mile(s):0
Sky conditions: clear
Temperature: 46.9 F (8.3 C)
Dew Point: 42.1 F (5.6 C)
Relative Humidity: 83%
Pressure (altimeter): 30.13 in. Hg (1020 hPa)
ob: KDRO 160653Z AUTO 09006KT 10SM CLR 08/06 A3013 RMK AO2 SLP130 T00830056 402670050
cycle: 7

Station Type Date Time Source
KDRO TAF 2019/06/16 06:30 UTC NOAA

TAF KDRO 160527Z 1606/1706 02005KT P6SM FEW120 FEW200
FM161500 VRB05KT P6SM FEW100 FEW200
FM161800 24006KT P6SM FEW100 SCT200
FM162100 27009KT P6SM FEW100 SCT150
FM170000 29010G18KT P6SM FEW100 SCT150

Example: see airport list